Time;durP1;ratioP1;P1;durP2;ratioP2;P2;SDS_P1;SDS_P2;PMS_P1;PMS_P2;Temp;Humidity;BMP_temperature;BMP_pressure;BME280_temperature;BME280_humidity;BME280_pressure;Samples;Min_cycle;Max_cycle;Signal;HPM_P1;HPM_P2
2022/08/01 00:00:06;;;;;;;3.37;2.30;;;25.10;82.70;;;;;;4939886;29;20494;-75
2022/08/01 00:02:33;;;;;;;4.00;2.10;;;25.10;83.10;;;;;;4946151;29;20426;-75
2022/08/01 00:04:59;;;;;;;2.80;2.60;;;25.00;83.40;;;;;;4947355;28;21383;-75
2022/08/01 00:07:26;;;;;;;2.70;2.50;;;25.00;83.50;;;;;;4936291;29;20439;-75
2022/08/01 00:09:52;;;;;;;1.97;1.87;;;25.00;83.70;;;;;;4945936;28;20519;-75
2022/08/01 00:12:20;;;;;;;2.30;2.10;;;25.00;83.90;;;;;;4935698;29;20504;-75
2022/08/01 00:14:46;;;;;;;2.27;2.07;;;25.00;84.30;;;;;;4937380;29;20769;-75
2022/08/01 00:17:12;;;;;;;2.20;2.00;;;25.00;84.30;;;;;;4942696;29;20430;-75
2022/08/01 00:19:38;;;;;;;2.97;2.67;;;25.00;84.10;;;;;;4954073;29;20415;-75
2022/08/01 00:22:04;;;;;;;2.27;2.07;;;25.00;84.20;;;;;;4970886;28;20994;-75
2022/08/01 00:24:30;;;;;;;2.97;2.70;;;25.00;84.30;;;;;;4938838;29;20454;-75
2022/08/01 00:26:59;;;;;;;3.00;2.30;;;25.00;84.50;;;;;;4950324;28;21133;-76
2022/08/01 00:29:25;;;;;;;2.43;2.23;;;25.00;84.60;;;;;;4935348;29;20480;-76
2022/08/01 00:31:51;;;;;;;2.63;2.43;;;25.00;84.60;;;;;;4939717;29;20457;-76
2022/08/01 00:34:17;;;;;;;2.80;2.30;;;24.90;84.90;;;;;;4955537;28;20415;-76
2022/08/01 00:36:46;;;;;;;2.60;2.40;;;24.90;85.10;;;;;;4969884;28;20435;-76
2022/08/01 00:39:12;;;;;;;6.33;2.60;;;24.90;85.40;;;;;;4935432;29;20432;-76
2022/08/01 00:41:43;;;;;;;3.40;2.73;;;24.90;85.40;;;;;;4937559;29;21179;-76
2022/08/01 00:44:09;;;;;;;2.57;1.90;;;24.90;85.40;;;;;;4955765;28;20411;-76
2022/08/01 00:46:35;;;;;;;2.87;2.50;;;24.90;85.40;;;;;;4955098;28;20482;-76
2022/08/01 00:49:03;;;;;;;3.00;2.70;;;24.90;85.30;;;;;;4937885;29;20509;-76
2022/08/01 00:51:33;;;;;;;3.60;2.20;;;24.90;85.60;;;;;;4955239;29;20447;-76
2022/08/01 00:54:00;;;;;;;3.00;2.40;;;24.90;85.70;;;;;;4934433;29;20471;-76
2022/08/01 00:56:27;;;;;;;2.70;2.50;;;24.90;86.00;;;;;;4947763;29;20419;-76
2022/08/01 00:58:57;;;;;;;3.10;2.17;;;24.90;85.90;;;;;;4938293;29;20509;-76
2022/08/01 01:01:26;;;;;;;3.63;3.23;;;24.80;85.60;;;;;;4958439;28;20451;-76
2022/08/01 01:03:53;;;;;;;2.53;2.33;;;24.80;85.80;;;;;;4952182;28;20843;-76
2022/08/01 01:06:48;;;;;;;3.07;2.83;;;24.80;86.10;;;;;;4946040;29;20483;-76
2022/08/01 01:09:36;;;;;;;2.73;2.50;;;24.80;85.70;;;;;;4935302;29;20480;-76
2022/08/01 01:12:08;;;;;;;3.20;2.53;;;24.80;85.70;;;;;;4950944;29;20456;-76
2022/08/01 01:14:46;;;;;;;2.70;2.50;;;24.80;85.90;;;;;;4949504;29;20424;-76
2022/08/01 01:17:16;;;;;;;3.20;2.90;;;24.80;86.20;;;;;;4949715;29;20502;-76
2022/08/01 01:19:47;;;;;;;3.53;2.60;;;24.70;86.10;;;;;;4938645;28;20424;-76
2022/08/01 01:22:48;;;;;;;2.77;2.47;;;24.80;86.00;;;;;;4919235;29;20470;-76
2022/08/01 01:25:31;;;;;;;2.50;2.23;;;24.70;85.80;;;;;;4930977;29;20444;-76
2022/08/01 01:28:02;;;;;;;2.70;2.47;;;24.70;85.90;;;;;;4966737;28;20475;-75
2022/08/01 01:30:30;;;;;;;3.93;2.63;;;24.70;86.10;;;;;;4936496;29;20436;-76
2022/08/01 01:33:01;;;;;;;3.53;2.57;;;24.70;86.20;;;;;;4953002;29;20435;-76
2022/08/01 01:35:34;;;;;;;3.47;3.17;;;24.70;86.10;;;;;;4953104;29;20416;-76
2022/08/01 01:38:18;;;;;;;3.13;2.23;;;24.70;86.30;;;;;;4934351;29;20432;-76
2022/08/01 01:40:46;;;;;;;3.10;2.80;;;24.70;86.10;;;;;;4935465;29;20495;-76
2022/08/01 01:43:14;;;;;;;5.50;2.90;;;24.70;86.10;;;;;;4934391;29;20939;-76
2022/08/01 01:45:44;;;;;;;2.53;2.33;;;24.70;86.10;;;;;;4920967;29;20444;-76
2022/08/01 01:48:16;;;;;;;2.73;2.53;;;24.70;86.10;;;;;;4939526;29;20467;-76
2022/08/01 01:50:47;;;;;;;2.80;2.37;;;24.70;86.20;;;;;;4937429;29;21030;-76
2022/08/01 01:53:15;;;;;;;3.00;2.80;;;24.60;86.10;;;;;;4952939;29;20438;-76
2022/08/01 01:55:44;;;;;;;2.97;2.77;;;24.60;85.90;;;;;;4953571;29;20502;-76
2022/08/01 01:58:42;;;;;;;3.40;2.90;;;24.60;85.70;;;;;;4887740;29;20434;-76
2022/08/01 02:01:12;;;;;;;3.40;2.90;;;24.60;85.70;;;;;;4949034;29;20464;-76
2022/08/01 02:03:41;;;;;;;2.70;2.50;;;24.60;85.60;;;;;;4953006;29;20501;-76
2022/08/01 02:06:08;;;;;;;3.20;2.90;;;24.60;85.70;;;;;;4948935;28;20446;-76
2022/08/01 02:08:40;;;;;;;2.80;2.60;;;24.60;85.70;;;;;;4937950;29;20448;-76
2022/08/01 02:11:23;;;;;;;3.03;2.57;;;24.60;85.70;;;;;;4922641;29;20447;-76
2022/08/01 02:14:08;;;;;;;2.67;2.47;;;24.50;85.50;;;;;;4938251;29;20461;-76
2022/08/01 02:16:39;;;;;;;3.00;2.80;;;24.50;85.60;;;;;;4973151;28;20427;-77
2022/08/01 02:19:05;;;;;;;2.97;2.50;;;24.50;85.50;;;;;;4955264;28;20411;-76
2022/08/01 02:21:47;;;;;;;6.20;3.00;;;24.50;85.50;;;;;;4922522;29;20443;-76
2022/08/01 02:24:17;;;;;;;2.73;2.47;;;24.50;85.40;;;;;;4925144;29;20417;-76
2022/08/01 02:26:49;;;;;;;3.30;3.00;;;24.50;85.50;;;;;;4950445;28;20447;-76
2022/08/01 02:29:21;;;;;;;2.87;2.60;;;24.50;85.80;;;;;;4951600;29;20889;-76
2022/08/01 02:31:48;;;;;;;3.47;2.83;;;24.50;85.70;;;;;;4956737;29;20808;-76
2022/08/01 02:34:18;;;;;;;3.60;2.50;;;24.50;85.70;;;;;;4956769;29;20426;-76
2022/08/01 02:36:47;;;;;;;3.60;2.73;;;24.50;85.70;;;;;;4957487;28;20482;-76
2022/08/01 02:39:15;;;;;;;3.13;2.70;;;24.50;85.60;;;;;;4956390;29;20411;-76
2022/08/01 02:41:49;;;;;;;4.87;2.80;;;24.50;85.60;;;;;;4934954;29;20447;-76
2022/08/01 02:44:26;;;;;;;4.83;3.00;;;24.50;85.70;;;;;;4972892;28;20419;-76
2022/08/01 02:46:57;;;;;;;2.80;2.60;;;24.50;85.60;;;;;;4947468;28;20976;-76
2022/08/01 02:49:27;;;;;;;3.20;2.90;;;24.50;85.60;;;;;;4937226;29;20834;-76
2022/08/01 02:52:01;;;;;;;3.10;2.47;;;24.40;85.50;;;;;;4936996;29;20506;-76
2022/08/01 02:54:29;;;;;;;4.43;2.93;;;24.40;85.60;;;;;;4921639;29;20518;-76
2022/08/01 02:57:00;;;;;;;3.27;2.97;;;24.40;85.60;;;;;;4946073;29;20438;-76
2022/08/01 02:59:29;;;;;;;2.70;2.50;;;24.40;86.40;;;;;;4956338;29;20962;-76
2022/08/01 03:01:57;;;;;;;2.80;2.23;;;24.40;85.60;;;;;;4957501;28;20456;-76
2022/08/01 03:04:27;;;;;;;3.67;3.10;;;24.40;85.60;;;;;;4937079;29;21114;-76
2022/08/01 03:06:57;;;;;;;3.07;2.77;;;24.40;85.70;;;;;;4950949;29;20938;-76
2022/08/01 03:09:23;;;;;;;3.33;2.60;;;24.40;85.70;;;;;;4957192;28;20447;-76
2022/08/01 03:11:52;;;;;;;3.30;3.00;;;24.40;85.70;;;;;;4957180;28;20447;-76
2022/08/01 03:14:21;;;;;;;3.93;2.57;;;24.40;85.80;;;;;;4956894;28;20518;-76
2022/08/01 03:16:52;;;;;;;4.40;3.00;;;24.40;85.90;;;;;;4950707;28;20460;-76
2022/08/01 03:19:22;;;;;;;4.47;3.10;;;24.30;85.90;;;;;;4936901;29;20447;-76
2022/08/01 03:21:49;;;;;;;3.70;2.80;;;24.30;86.00;;;;;;4934074;29;20455;-76
2022/08/01 03:24:19;;;;;;;3.23;2.80;;;24.40;86.20;;;;;;4972322;28;20418;-76
2022/08/01 03:26:49;;;;;;;3.20;2.90;;;24.30;86.10;;;;;;4943275;29;20419;-76
2022/08/01 03:29:25;;;;;;;2.90;2.70;;;24.30;86.00;;;;;;4938121;29;20469;-76
2022/08/01 03:31:52;;;;;;;5.53;2.77;;;24.30;86.10;;;;;;4967860;28;20553;-76
2022/08/01 03:34:21;;;;;;;3.77;2.80;;;24.30;86.60;;;;;;4955264;28;20435;-76
2022/08/01 03:36:53;;;;;;;5.30;3.53;;;24.30;86.20;;;;;;4956794;28;20836;-76
2022/08/01 03:39:27;;;;;;;3.90;3.07;;;24.30;86.20;;;;;;4939776;29;21010;-76
2022/08/01 03:42:05;;;;;;;3.30;3.00;;;24.20;86.10;;;;;;4955485;29;20463;-76
2022/08/01 03:44:38;;;;;;;3.13;2.83;;;24.30;86.40;;;;;;4971833;28;20509;-76
2022/08/01 03:47:08;;;;;;;5.53;3.27;;;24.20;86.50;;;;;;4948977;28;20499;-76
2022/08/01 03:49:44;;;;;;;3.37;3.07;;;24.30;86.50;;;;;;4920427;29;20466;-76
2022/08/01 03:52:12;;;;;;;6.23;3.20;;;24.20;86.50;;;;;;4935940;29;20439;-76
2022/08/01 03:54:47;;;;;;;4.13;3.57;;;24.20;86.50;;;;;;4951300;29;20432;-76
2022/08/01 03:57:18;;;;;;;3.60;3.30;;;24.20;86.70;;;;;;4956497;28;20422;-76
2022/08/01 03:59:48;;;;;;;4.73;3.77;;;24.20;86.60;;;;;;4936087;29;20440;-76
2022/08/01 04:02:22;;;;;;;4.30;3.90;;;24.20;87.40;;;;;;4936320;29;20439;-76
2022/08/01 04:04:51;;;;;;;4.23;3.67;;;24.20;86.60;;;;;;4954917;29;20551;-76
2022/08/01 04:07:38;;;;;;;4.27;3.87;;;24.20;86.70;;;;;;4928842;29;20964;-76
2022/08/01 04:10:06;;;;;;;6.03;3.83;;;24.20;86.70;;;;;;4936363;29;20566;-76
2022/08/01 04:12:34;;;;;;;4.67;3.47;;;24.10;86.70;;;;;;4935934;29;20459;-76
2022/08/01 04:15:01;;;;;;;4.43;4.03;;;24.20;86.80;;;;;;4961508;28;20850;-76
2022/08/01 04:17:30;;;;;;;4.43;3.70;;;24.20;86.90;;;;;;4953661;29;20503;-76
2022/08/01 04:19:56;;;;;;;4.47;4.07;;;24.20;87.00;;;;;;4945264;29;20427;-76
2022/08/01 04:22:22;;;;;;;4.37;3.97;;;24.10;86.90;;;;;;4954942;29;20475;-76
2022/08/01 04:24:53;;;;;;;6.40;3.50;;;24.10;87.00;;;;;;4952166;28;20464;-76
2022/08/01 04:27:28;;;;;;;4.10;3.80;;;24.10;86.90;;;;;;4936780;29;20976;-76
2022/08/01 04:29:56;;;;;;;4.20;3.80;;;24.10;87.10;;;;;;4936073;29;20443;-75
2022/08/01 04:32:25;;;;;;;3.80;3.50;;;24.10;87.00;;;;;;4947350;29;20478;-76
2022/08/01 04:34:56;;;;;;;4.67;3.37;;;24.10;87.20;;;;;;4955544;29;20445;-76
2022/08/01 04:37:25;;;;;;;4.40;3.70;;;24.10;87.20;;;;;;4941849;29;20480;-76
2022/08/01 04:39:54;;;;;;;4.90;4.50;;;24.10;87.30;;;;;;4938185;29;20431;-76
2022/08/01 04:42:21;;;;;;;4.87;3.97;;;24.10;87.30;;;;;;4925670;29;20530;-76
2022/08/01 04:44:47;;;;;;;5.67;4.03;;;24.10;87.30;;;;;;4926163;29;20454;-76
2022/08/01 04:47:18;;;;;;;4.00;3.60;;;24.10;87.40;;;;;;4955457;28;20414;-76
2022/08/01 04:49:45;;;;;;;5.37;4.30;;;24.10;87.60;;;;;;4938156;29;20945;-76
2022/08/01 04:52:14;;;;;;;4.43;4.00;;;24.00;87.50;;;;;;4970305;28;20850;-76
2022/08/01 04:54:40;;;;;;;3.80;3.50;;;24.00;87.40;;;;;;4936906;29;20416;-76
2022/08/01 04:57:08;;;;;;;4.60;4.13;;;24.10;87.60;;;;;;4951607;28;20428;-76
2022/08/01 04:59:40;;;;;;;5.30;4.57;;;24.00;87.60;;;;;;4935441;29;20447;-76
2022/08/01 05:02:19;;;;;;;5.23;4.73;;;24.00;87.60;;;;;;4968915;28;20462;-76
2022/08/01 05:04:46;;;;;;;6.30;4.17;;;24.00;87.70;;;;;;4937934;29;20427;-76
2022/08/01 05:07:17;;;;;;;5.37;4.90;;;24.00;87.70;;;;;;4938287;29;20434;-76
2022/08/01 05:09:46;;;;;;;4.50;4.07;;;24.00;87.70;;;;;;4954964;28;20450;-76
2022/08/01 05:12:16;;;;;;;4.43;4.03;;;24.00;87.90;;;;;;4948773;28;20458;-75
2022/08/01 05:14:43;;;;;;;3.90;3.60;;;24.00;87.90;;;;;;4948162;29;20497;-76
2022/08/01 05:17:09;;;;;;;4.37;3.97;;;24.00;88.00;;;;;;4954453;29;20486;-76
2022/08/01 05:19:39;;;;;;;4.83;4.30;;;23.90;87.90;;;;;;4954217;28;20426;-75
2022/08/01 05:22:09;;;;;;;4.90;4.30;;;23.90;88.00;;;;;;4936940;29;20455;-75
2022/08/01 05:24:39;;;;;;;6.83;4.20;;;23.90;88.00;;;;;;4944825;29;20514;-76
2022/08/01 05:27:07;;;;;;;4.73;4.03;;;24.00;88.20;;;;;;4953567;29;20418;-76
2022/08/01 05:29:34;;;;;;;4.43;4.03;;;24.00;88.20;;;;;;4953756;29;20447;-76
2022/08/01 05:32:03;;;;;;;5.53;4.50;;;23.90;88.20;;;;;;4961083;28;20467;-75
2022/08/01 05:34:29;;;;;;;4.80;4.30;;;23.90;88.20;;;;;;4954302;28;20471;-76
2022/08/01 05:36:55;;;;;;;4.70;4.10;;;23.90;88.30;;;;;;4955732;28;20430;-75
2022/08/01 05:39:21;;;;;;;5.10;4.40;;;23.90;89.10;;;;;;4930133;29;20787;-75
2022/08/01 05:41:52;;;;;;;4.70;4.30;;;23.90;88.30;;;;;;4950480;28;20506;-75
2022/08/01 05:44:18;;;;;;;4.83;4.30;;;23.90;88.30;;;;;;4934486;29;20430;-76
2022/08/01 05:47:08;;;;;;;5.30;4.67;;;23.90;88.40;;;;;;4907800;29;20963;-77
2022/08/01 05:49:34;;;;;;;4.80;4.40;;;23.90;88.40;;;;;;4951376;29;20446;-77
2022/08/01 05:52:01;;;;;;;4.20;3.80;;;23.90;88.40;;;;;;4963785;28;20463;-76
2022/08/01 05:54:28;;;;;;;4.00;3.70;;;23.90;88.60;;;;;;4935334;29;20413;-76
2022/08/01 05:56:59;;;;;;;4.90;4.50;;;23.90;88.70;;;;;;4938087;29;20428;-75
2022/08/01 05:59:31;;;;;;;4.80;4.30;;;23.80;89.40;;;;;;4934364;29;20452;-76
2022/08/01 06:01:57;;;;;;;4.33;4.00;;;23.90;88.80;;;;;;4918371;29;20448;-76
2022/08/01 06:04:23;;;;;;;5.10;4.60;;;23.80;88.80;;;;;;4918182;29;20436;-77
2022/08/01 06:06:49;;;;;;;4.70;4.30;;;23.90;88.90;;;;;;4933803;29;20416;-76
2022/08/01 06:09:15;;;;;;;4.60;4.20;;;23.80;88.70;;;;;;4918277;29;20204;-76
2022/08/01 06:11:41;;;;;;;4.80;4.33;;;23.80;88.60;;;;;;4933862;29;21012;-76
2022/08/01 06:14:07;;;;;;;5.00;4.50;;;23.80;88.70;;;;;;4935305;29;20176;-76
2022/08/01 06:16:33;;;;;;;4.23;3.83;;;23.80;88.80;;;;;;4925473;29;20498;-76
2022/08/01 06:19:01;;;;;;;4.60;4.20;;;23.80;88.80;;;;;;4942756;28;20526;-76
2022/08/01 06:21:30;;;;;;;4.40;4.00;;;23.80;88.70;;;;;;4943590;29;20538;-76
2022/08/01 06:23:56;;;;;;;4.57;4.13;;;23.80;88.80;;;;;;4968613;28;20541;-76
2022/08/01 06:26:24;;;;;;;5.13;4.63;;;23.80;88.80;;;;;;4966650;28;20427;-76
2022/08/01 06:28:50;;;;;;;4.70;4.30;;;23.80;88.90;;;;;;4939670;29;20599;-76
2022/08/01 06:31:16;;;;;;;4.77;4.37;;;23.80;88.90;;;;;;4952637;28;20509;-76
2022/08/01 06:33:42;;;;;;;3.87;3.57;;;23.80;88.80;;;;;;4952974;28;20439;-76
2022/08/01 06:36:29;;;;;;;4.40;4.00;;;23.80;88.90;;;;;;4944256;29;20451;-76
2022/08/01 06:38:59;;;;;;;3.80;3.50;;;23.80;88.70;;;;;;4938774;29;20950;-76
2022/08/01 06:41:26;;;;;;;4.73;4.30;;;23.80;88.70;;;;;;4927313;29;20844;-76
2022/08/01 06:43:52;;;;;;;4.13;3.73;;;23.80;88.80;;;;;;4968357;28;20478;-76
2022/08/01 06:46:20;;;;;;;4.30;3.83;;;23.80;88.90;;;;;;4959096;28;20579;-76
2022/08/01 06:48:50;;;;;;;4.47;4.10;;;23.80;88.70;;;;;;4944941;29;20545;-76
2022/08/01 06:51:19;;;;;;;5.10;4.60;;;23.80;88.80;;;;;;4932167;29;21167;-76
2022/08/01 06:53:45;;;;;;;4.30;4.00;;;23.80;88.60;;;;;;4936135;29;20423;-76
2022/08/01 06:56:13;;;;;;;4.03;3.70;;;23.80;88.70;;;;;;4945464;29;20439;-76
2022/08/01 06:58:40;;;;;;;4.27;3.90;;;23.80;88.60;;;;;;4971611;28;20932;-76
2022/08/01 07:01:20;;;;;;;3.90;3.60;;;23.80;88.70;;;;;;4945867;29;20862;-76
2022/08/01 07:03:46;;;;;;;3.90;3.60;;;23.80;88.70;;;;;;4935819;29;20450;-76
2022/08/01 07:06:11;;;;;;;3.50;3.20;;;23.80;88.60;;;;;;4961266;28;20443;-76
2022/08/01 07:08:40;;;;;;;3.67;3.37;;;23.70;88.50;;;;;;4949623;28;21077;-76
2022/08/01 07:11:06;;;;;;;3.70;3.40;;;23.80;88.70;;;;;;4956340;28;20453;-76
2022/08/01 07:13:35;;;;;;;3.63;3.33;;;23.80;88.70;;;;;;4954836;29;20462;-76
2022/08/01 07:16:01;;;;;;;3.83;3.53;;;23.80;88.60;;;;;;4938993;29;20963;-76
2022/08/01 07:18:32;;;;;;;3.70;3.40;;;23.70;88.30;;;;;;4954719;29;20463;-77
2022/08/01 07:20:58;;;;;;;4.40;3.87;;;23.80;88.40;;;;;;4942073;29;20452;-77
2022/08/01 07:23:24;;;;;;;3.70;3.40;;;23.70;88.50;;;;;;4951734;29;20443;-77
2022/08/01 07:25:52;;;;;;;4.40;3.60;;;23.80;88.60;;;;;;4961084;28;20482;-77
2022/08/01 07:28:18;;;;;;;3.73;3.43;;;23.80;88.50;;;;;;4951540;29;20447;-76
2022/08/01 07:30:47;;;;;;;3.53;3.23;;;23.80;88.40;;;;;;4920934;29;20467;-76
2022/08/01 07:33:16;;;;;;;2.70;2.50;;;23.80;88.40;;;;;;5033472;23;20576;-72
2022/08/01 07:35:42;;;;;;;4.07;3.67;;;23.80;88.40;;;;;;4959680;28;20794;-73
2022/08/01 07:38:13;;;;;;;3.10;2.80;;;23.80;88.40;;;;;;4970504;28;20419;-72
2022/08/01 07:40:42;;;;;;;3.73;3.43;;;23.80;88.30;;;;;;4974967;28;20441;-72
2022/08/01 07:43:10;;;;;;;3.20;2.97;;;23.80;88.40;;;;;;4973827;28;20403;-72
2022/08/01 07:45:36;;;;;;;3.33;2.93;;;23.80;88.30;;;;;;4973569;28;20433;-72
2022/08/01 07:48:04;;;;;;;3.47;3.17;;;23.80;88.40;;;;;;4945616;29;20962;-73
2022/08/01 07:50:33;;;;;;;3.53;3.23;;;23.80;88.40;;;;;;4957624;28;20494;-73
2022/08/01 07:53:03;;;;;;;3.40;3.20;;;23.80;88.40;;;;;;4973869;28;20442;-73
2022/08/01 07:55:29;;;;;;;3.43;3.13;;;23.80;88.40;;;;;;4971041;28;20415;-73
2022/08/01 07:57:55;;;;;;;3.33;3.03;;;23.80;88.50;;;;;;4963561;28;20423;-73
2022/08/01 08:00:24;;;;;;;2.87;2.67;;;23.80;88.60;;;;;;4954311;28;20458;-73
2022/08/01 08:02:50;;;;;;;3.70;3.40;;;23.80;88.70;;;;;;4940940;28;20971;-73
2022/08/01 08:05:20;;;;;;;3.07;2.77;;;23.80;88.70;;;;;;4954831;28;20427;-72
2022/08/01 08:07:46;;;;;;;3.13;2.83;;;23.80;88.90;;;;;;4938516;29;20557;-73
2022/08/01 08:10:12;;;;;;;3.40;3.10;;;23.90;89.10;;;;;;4955325;28;20512;-73
2022/08/01 08:12:38;;;;;;;3.20;3.00;;;23.80;88.80;;;;;;4963122;28;20426;-73
2022/08/01 08:15:09;;;;;;;3.43;3.13;;;23.90;88.80;;;;;;4973449;28;20509;-73
2022/08/01 08:17:37;;;;;;;2.90;2.67;;;23.90;89.10;;;;;;4969145;28;20509;-73
2022/08/01 08:20:05;;;;;;;3.87;3.33;;;23.90;89.00;;;;;;4973345;28;20431;-71
2022/08/01 08:22:34;;;;;;;2.97;2.70;;;23.90;88.80;;;;;;4974360;28;20460;-70
2022/08/01 08:25:03;;;;;;;3.33;3.03;;;23.90;89.10;;;;;;4950599;29;20434;-73
2022/08/01 08:27:31;;;;;;;3.37;3.07;;;23.90;89.10;;;;;;4956434;28;20455;-73
2022/08/01 08:30:02;;;;;;;3.50;3.20;;;24.00;89.30;;;;;;4965708;28;20468;-73
2022/08/01 08:32:28;;;;;;;4.47;2.83;;;23.90;89.10;;;;;;4969690;28;20506;-73
2022/08/01 08:34:57;;;;;;;2.97;2.67;;;23.90;88.90;;;;;;4941226;28;20426;-73
2022/08/01 08:37:22;;;;;;;3.13;2.83;;;24.00;89.00;;;;;;4964678;28;20709;-73
2022/08/01 08:39:49;;;;;;;3.60;3.10;;;24.00;88.90;;;;;;4953765;29;20988;-73
2022/08/01 08:42:21;;;;;;;2.97;2.67;;;24.00;88.80;;;;;;4970799;28;20496;-73
2022/08/01 08:44:54;;;;;;;3.10;2.80;;;24.00;88.90;;;;;;4972637;28;20772;-73
2022/08/01 08:47:22;;;;;;;4.30;3.03;;;24.00;89.20;;;;;;4956044;28;20483;-73
2022/08/01 08:49:55;;;;;;;3.33;2.70;;;24.00;89.50;;;;;;4954548;28;20473;-72
2022/08/01 08:52:22;;;;;;;3.63;3.07;;;24.00;89.70;;;;;;4954557;28;20446;-73
2022/08/01 08:54:49;;;;;;;5.93;3.00;;;24.10;89.60;;;;;;4953178;29;20446;-72
2022/08/01 08:57:22;;;;;;;3.33;3.03;;;24.10;89.40;;;;;;4954621;28;20455;-72
2022/08/01 08:59:53;;;;;;;3.40;3.10;;;24.10;89.60;;;;;;4954506;28;20473;-73
2022/08/01 09:02:20;;;;;;;4.93;2.60;;;24.10;89.70;;;;;;4954018;29;20462;-73
2022/08/01 09:04:51;;;;;;;3.00;2.80;;;24.10;89.60;;;;;;4952804;28;20520;-73
2022/08/01 09:07:17;;;;;;;2.83;2.57;;;24.10;89.60;;;;;;4937395;29;20458;-72
2022/08/01 09:09:43;;;;;;;2.93;2.43;;;24.10;89.50;;;;;;4921361;29;20470;-72
2022/08/01 09:12:09;;;;;;;2.93;2.43;;;24.20;89.50;;;;;;4952973;29;20455;-73
2022/08/01 09:14:47;;;;;;;2.80;2.60;;;24.20;89.40;;;;;;4937117;29;20497;-73
2022/08/01 09:17:13;;;;;;;2.60;2.40;;;24.20;89.30;;;;;;4952810;29;20772;-73
2022/08/01 09:19:45;;;;;;;2.43;2.23;;;24.20;89.30;;;;;;4952869;29;20431;-73
2022/08/01 09:22:20;;;;;;;3.97;2.70;;;24.20;89.30;;;;;;4952706;29;20435;-72
2022/08/01 09:25:05;;;;;;;2.93;2.63;;;24.20;89.10;;;;;;4952669;29;20500;-73
2022/08/01 09:28:03;;;;;;;2.50;2.30;;;24.20;89.10;;;;;;4953541;28;20498;-72
2022/08/01 09:30:38;;;;;;;5.80;2.50;;;24.30;89.10;;;;;;4952859;29;20566;-73
2022/08/01 09:33:05;;;;;;;2.57;2.37;;;24.30;89.00;;;;;;4952891;29;20548;-73
2022/08/01 09:35:37;;;;;;;2.60;2.40;;;24.30;89.10;;;;;;4937443;28;20443;-72
2022/08/01 09:38:14;;;;;;;2.57;2.37;;;24.30;89.00;;;;;;4934718;29;20823;-73
2022/08/01 09:40:55;;;;;;;2.90;2.60;;;24.30;88.90;;;;;;4933487;29;20443;-73
2022/08/01 09:43:26;;;;;;;2.47;2.27;;;24.40;88.90;;;;;;4934647;29;21299;-73
2022/08/01 09:45:55;;;;;;;2.60;2.40;;;24.40;88.90;;;;;;4933692;29;20442;-73
2022/08/01 09:48:22;;;;;;;3.03;2.73;;;24.40;88.90;;;;;;4917585;29;20463;-73
2022/08/01 09:50:52;;;;;;;2.47;2.23;;;24.40;88.70;;;;;;4901606;29;20968;-73
2022/08/01 09:53:18;;;;;;;2.90;2.70;;;24.40;88.60;;;;;;4934566;29;20408;-72
2022/08/01 09:55:45;;;;;;;2.60;2.40;;;24.40;88.50;;;;;;4933336;29;20408;-73
2022/08/01 09:58:12;;;;;;;2.50;2.30;;;24.40;88.30;;;;;;4949261;29;20439;-73
2022/08/01 10:00:40;;;;;;;2.60;2.40;;;24.40;88.40;;;;;;4917804;29;20480;-73
2022/08/01 10:03:35;;;;;;;2.60;2.40;;;24.50;88.40;;;;;;4949345;28;20834;-73
2022/08/01 10:06:26;;;;;;;2.97;2.67;;;24.50;88.30;;;;;;4893917;29;20980;-72
2022/08/01 10:08:55;;;;;;;2.63;2.43;;;24.50;88.10;;;;;;4914233;29;20576;-72
2022/08/01 10:11:21;;;;;;;3.03;2.20;;;24.50;88.00;;;;;;4933231;29;20493;-73
2022/08/01 10:13:48;;;;;;;2.20;2.00;;;24.50;87.80;;;;;;4933349;29;20430;-73
2022/08/01 10:16:15;;;;;;;2.60;2.40;;;24.50;87.80;;;;;;4934454;29;20459;-73
2022/08/01 10:18:49;;;;;;;2.50;2.30;;;24.50;87.80;;;;;;4933679;29;20523;-73
2022/08/01 10:21:16;;;;;;;2.43;2.23;;;24.50;87.70;;;;;;4949167;29;20446;-72
2022/08/01 10:23:45;;;;;;;2.80;2.60;;;24.60;87.80;;;;;;4948942;29;20532;-72
2022/08/01 10:26:16;;;;;;;2.80;2.60;;;24.60;87.70;;;;;;4933784;29;20560;-72
2022/08/01 10:28:46;;;;;;;2.63;1.90;;;24.60;87.60;;;;;;4936570;29;20471;-73
2022/08/01 10:31:17;;;;;;;2.50;2.30;;;24.60;87.40;;;;;;4941297;28;20475;-72
2022/08/01 10:33:44;;;;;;;2.53;2.33;;;24.70;87.50;;;;;;4940344;29;20445;-72
2022/08/01 10:36:13;;;;;;;2.27;2.03;;;24.70;87.30;;;;;;4955825;29;20403;-72
2022/08/01 10:38:44;;;;;;;2.70;2.50;;;24.70;87.10;;;;;;4955732;29;20438;-73
2022/08/01 10:41:15;;;;;;;2.37;2.20;;;24.70;87.00;;;;;;4955901;29;20522;-72
2022/08/01 10:43:43;;;;;;;2.67;2.47;;;24.70;86.90;;;;;;4957145;28;20875;-72
2022/08/01 10:46:12;;;;;;;2.00;1.90;;;24.80;86.90;;;;;;4956064;29;20831;-73
2022/08/01 10:48:55;;;;;;;2.77;2.57;;;24.80;86.60;;;;;;4955934;29;20504;-72
2022/08/01 10:51:21;;;;;;;1.90;1.80;;;24.80;86.50;;;;;;4955653;29;20435;-72
2022/08/01 10:53:52;;;;;;;2.70;2.50;;;24.80;86.30;;;;;;4956057;29;20425;-72
2022/08/01 10:56:21;;;;;;;2.47;2.23;;;24.90;86.40;;;;;;4955739;29;20522;-72
2022/08/01 10:58:48;;;;;;;3.83;2.27;;;24.80;86.00;;;;;;4955796;29;20457;-72
2022/08/01 11:01:25;;;;;;;2.53;2.33;;;24.90;85.90;;;;;;4956746;28;20441;-72
2022/08/01 11:04:05;;;;;;;3.40;2.37;;;24.90;85.80;;;;;;4957126;28;20816;-73
2022/08/01 11:06:36;;;;;;;2.77;2.57;;;24.90;85.60;;;;;;4955229;29;20403;-72
2022/08/01 11:09:03;;;;;;;2.70;2.50;;;25.00;85.50;;;;;;4955111;29;20484;-72
2022/08/01 11:11:32;;;;;;;2.60;2.40;;;25.00;85.30;;;;;;4955475;29;20490;-72
2022/08/01 11:14:12;;;;;;;2.27;2.13;;;25.00;85.10;;;;;;4956613;28;20431;-72
2022/08/01 11:16:40;;;;;;;2.63;2.30;;;25.00;84.80;;;;;;4956500;28;20421;-73
2022/08/01 11:19:10;;;;;;;2.20;2.10;;;25.10;84.70;;;;;;4939776;29;20451;-72
2022/08/01 11:22:09;;;;;;;2.53;2.33;;;25.10;84.50;;;;;;4955285;29;20452;-72
2022/08/01 11:25:04;;;;;;;2.20;2.00;;;25.10;84.30;;;;;;4913583;29;20490;-73
2022/08/01 11:27:35;;;;;;;2.47;2.23;;;25.10;84.10;;;;;;4928019;29;20470;-72
2022/08/01 11:30:10;;;;;;;2.40;2.20;;;25.20;84.10;;;;;;4954693;29;20561;-72
2022/08/01 11:32:55;;;;;;;3.00;2.80;;;25.20;83.90;;;;;;4938755;29;20446;-73
2022/08/01 11:35:26;;;;;;;2.40;2.20;;;25.20;83.80;;;;;;4954536;28;20871;-73
2022/08/01 11:37:56;;;;;;;2.10;1.90;;;25.30;83.80;;;;;;4954787;28;20482;-72
2022/08/01 11:40:28;;;;;;;2.33;2.13;;;25.30;83.90;;;;;;4954892;29;20431;-72
2022/08/01 11:43:13;;;;;;;2.47;2.27;;;25.30;83.80;;;;;;4955122;29;20427;-72
2022/08/01 11:45:54;;;;;;;2.87;2.00;;;25.40;83.80;;;;;;4939020;29;20410;-73
2022/08/01 11:48:27;;;;;;;2.07;1.97;;;25.40;83.70;;;;;;4955803;29;20828;-72
2022/08/01 11:50:55;;;;;;;2.20;2.00;;;25.40;83.60;;;;;;4954796;29;20501;-72
2022/08/01 11:53:24;;;;;;;2.93;2.73;;;25.40;83.60;;;;;;4939000;29;20836;-73
2022/08/01 11:55:54;;;;;;;2.20;2.07;;;25.40;83.60;;;;;;4954517;29;20467;-72
2022/08/01 11:58:25;;;;;;;2.60;2.40;;;25.50;83.60;;;;;;4956353;28;20490;-72
2022/08/01 12:00:58;;;;;;;3.07;2.87;;;25.50;83.70;;;;;;4939569;29;20485;-73
2022/08/01 12:03:27;;;;;;;2.10;2.00;;;25.50;83.60;;;;;;4955412;29;20417;-73
2022/08/01 12:05:55;;;;;;;2.50;2.30;;;25.50;83.70;;;;;;4956362;28;20493;-72
2022/08/01 12:08:49;;;;;;;2.17;2.03;;;25.60;83.70;;;;;;4955098;29;20427;-72
2022/08/01 12:11:18;;;;;;;2.10;2.00;;;25.60;83.70;;;;;;4937483;29;20876;-73
2022/08/01 12:13:49;;;;;;;2.20;2.10;;;25.60;83.70;;;;;;4956384;28;20400;-73
2022/08/01 12:16:20;;;;;;;2.20;2.10;;;25.60;83.60;;;;;;4939411;29;20435;-72
2022/08/01 12:18:46;;;;;;;2.50;2.30;;;25.60;83.40;;;;;;4939106;29;20502;-72
2022/08/01 12:21:15;;;;;;;2.10;1.87;;;25.70;83.50;;;;;;4955010;29;20442;-73
2022/08/01 12:23:43;;;;;;;2.03;1.93;;;25.70;83.40;;;;;;4954770;29;20415;-73
2022/08/01 12:26:14;;;;;;;2.43;2.23;;;25.70;83.40;;;;;;4939437;29;20430;-72
2022/08/01 12:28:42;;;;;;;2.70;2.50;;;25.70;83.20;;;;;;4954778;29;20839;-72
2022/08/01 12:31:11;;;;;;;2.20;1.80;;;25.80;83.30;;;;;;4955698;28;20975;-73
2022/08/01 12:33:37;;;;;;;2.20;2.10;;;25.80;83.30;;;;;;4938955;29;20511;-72
2022/08/01 12:36:09;;;;;;;2.50;2.30;;;25.80;83.20;;;;;;4954590;29;20435;-72
2022/08/01 12:38:35;;;;;;;2.30;2.20;;;25.80;83.20;;;;;;4954786;29;20451;-72
2022/08/01 12:41:09;;;;;;;2.10;2.00;;;25.80;83.10;;;;;;4955766;29;20940;-72
2022/08/01 12:43:42;;;;;;;2.20;2.00;;;25.90;83.20;;;;;;4938676;29;20442;-72
2022/08/01 12:46:15;;;;;;;2.10;1.90;;;25.90;83.20;;;;;;4954634;29;20840;-72
2022/08/01 12:48:44;;;;;;;2.70;2.50;;;25.90;83.00;;;;;;4954027;28;20450;-72
2022/08/01 12:51:11;;;;;;;2.07;1.97;;;25.90;83.00;;;;;;4954912;28;20447;-72
2022/08/01 12:53:42;;;;;;;2.30;2.10;;;26.00;83.10;;;;;;4954552;29;20414;-72
2022/08/01 12:56:09;;;;;;;2.20;2.00;;;25.90;82.80;;;;;;4938666;29;20482;-73
2022/08/01 12:58:41;;;;;;;2.10;1.90;;;26.00;82.80;;;;;;4954200;29;20415;-72
2022/08/01 13:01:10;;;;;;;2.17;2.00;;;26.00;82.70;;;;;;4953890;29;20435;-72
2022/08/01 13:03:37;;;;;;;2.20;2.00;;;26.00;82.60;;;;;;4938258;29;20786;-72